sensor_id;sensor_type;location;lat;lon;timestamp;temperature;humidity
7472;DHT22;3777;48.722;8.110;2023-05-07T00:00:49;14.60;99.90
7472;DHT22;3777;48.722;8.110;2023-05-07T00:03:16;14.60;99.90
7472;DHT22;3777;48.722;8.110;2023-05-07T00:05:44;14.50;99.90
7472;DHT22;3777;48.722;8.110;2023-05-07T00:08:12;14.50;99.90
7472;DHT22;3777;48.722;8.110;2023-05-07T00:10:39;14.50;99.90
7472;DHT22;3777;48.722;8.110;2023-05-07T00:13:06;14.50;99.90
7472;DHT22;3777;48.722;8.110;2023-05-07T00:15:34;14.50;99.90
7472;DHT22;3777;48.722;8.110;2023-05-07T00:18:01;14.50;99.90
7472;DHT22;3777;48.722;8.110;2023-05-07T00:20:28;14.40;99.90
7472;DHT22;3777;48.722;8.110;2023-05-07T00:22:55;14.40;99.90
7472;DHT22;3777;48.722;8.110;2023-05-07T00:25:22;14.40;99.90
7472;DHT22;3777;48.722;8.110;2023-05-07T00:27:49;14.40;99.90
7472;DHT22;3777;48.722;8.110;2023-05-07T00:30:16;14.40;99.90
7472;DHT22;3777;48.722;8.110;2023-05-07T00:32:44;14.30;99.90
7472;DHT22;3777;48.722;8.110;2023-05-07T00:35:11;14.30;99.90
7472;DHT22;3777;48.722;8.110;2023-05-07T00:37:38;14.30;99.90
7472;DHT22;3777;48.722;8.110;2023-05-07T00:40:07;14.20;99.90
7472;DHT22;3777;48.722;8.110;2023-05-07T00:42:34;14.20;99.90
7472;DHT22;3777;48.722;8.110;2023-05-07T00:45:01;14.20;99.90
7472;DHT22;3777;48.722;8.110;2023-05-07T00:47:28;14.20;99.90
7472;DHT22;3777;48.722;8.110;2023-05-07T00:49:57;14.20;99.90
7472;DHT22;3777;48.722;8.110;2023-05-07T00:52:25;14.10;99.90
7472;DHT22;3777;48.722;8.110;2023-05-07T00:54:53;14.10;99.90
7472;DHT22;3777;48.722;8.110;2023-05-07T00:57:21;14.10;99.90
7472;DHT22;3777;48.722;8.110;2023-05-07T00:59:48;14.10;99.90
7472;DHT22;3777;48.722;8.110;2023-05-07T01:02:15;14.00;99.90
7472;DHT22;3777;48.722;8.110;2023-05-07T01:04:43;14.00;99.90
7472;DHT22;3777;48.722;8.110;2023-05-07T01:07:11;14.00;99.90
7472;DHT22;3777;48.722;8.110;2023-05-07T01:09:39;14.00;99.90
7472;DHT22;3777;48.722;8.110;2023-05-07T01:12:07;13.90;99.90
7472;DHT22;3777;48.722;8.110;2023-05-07T01:14:35;13.90;99.90
7472;DHT22;3777;48.722;8.110;2023-05-07T01:17:02;13.90;99.90
7472;DHT22;3777;48.722;8.110;2023-05-07T01:19:30;13.90;99.90
7472;DHT22;3777;48.722;8.110;2023-05-07T01:22:02;14.00;99.90
7472;DHT22;3777;48.722;8.110;2023-05-07T01:24:32;14.00;99.90
7472;DHT22;3777;48.722;8.110;2023-05-07T01:26:59;14.00;99.90
7472;DHT22;3777;48.722;8.110;2023-05-07T01:29:27;14.00;99.90
7472;DHT22;3777;48.722;8.110;2023-05-07T01:31:55;14.00;99.90
7472;DHT22;3777;48.722;8.110;2023-05-07T01:34:22;14.00;99.90
7472;DHT22;3777;48.722;8.110;2023-05-07T01:36:52;14.00;99.90
7472;DHT22;3777;48.722;8.110;2023-05-07T01:39:19;13.90;99.90
7472;DHT22;3777;48.722;8.110;2023-05-07T01:41:48;13.90;99.90
7472;DHT22;3777;48.722;8.110;2023-05-07T01:44:16;13.90;99.90
7472;DHT22;3777;48.722;8.110;2023-05-07T01:46:45;13.90;99.90
7472;DHT22;3777;48.722;8.110;2023-05-07T01:49:13;13.90;99.90
7472;DHT22;3777;48.722;8.110;2023-05-07T01:51:40;13.90;99.90
7472;DHT22;3777;48.722;8.110;2023-05-07T01:54:07;13.80;99.90
7472;DHT22;3777;48.722;8.110;2023-05-07T01:56:34;13.80;99.90
7472;DHT22;3777;48.722;8.110;2023-05-07T01:59:02;13.80;99.90
7472;DHT22;3777;48.722;8.110;2023-05-07T02:01:29;13.80;99.90
7472;DHT22;3777;48.722;8.110;2023-05-07T02:03:56;13.80;99.90
7472;DHT22;3777;48.722;8.110;2023-05-07T02:06:23;13.80;99.90
7472;DHT22;3777;48.722;8.110;2023-05-07T02:08:50;13.70;99.90
7472;DHT22;3777;48.722;8.110;2023-05-07T02:11:17;13.70;99.90
7472;DHT22;3777;48.722;8.110;2023-05-07T02:13:44;13.70;99.90
7472;DHT22;3777;48.722;8.110;2023-05-07T02:16:12;13.70;99.90
7472;DHT22;3777;48.722;8.110;2023-05-07T02:18:39;13.60;99.90
7472;DHT22;3777;48.722;8.110;2023-05-07T02:21:06;13.60;99.90
7472;DHT22;3777;48.722;8.110;2023-05-07T02:23:33;13.60;99.90
7472;DHT22;3777;48.722;8.110;2023-05-07T02:26:00;13.60;99.90
7472;DHT22;3777;48.722;8.110;2023-05-07T02:28:27;13.60;99.90
7472;DHT22;3777;48.722;8.110;2023-05-07T02:30:54;13.60;99.90
7472;DHT22;3777;48.722;8.110;2023-05-07T02:33:22;13.70;99.90
7472;DHT22;3777;48.722;8.110;2023-05-07T02:35:49;13.60;99.90
7472;DHT22;3777;48.722;8.110;2023-05-07T02:38:17;13.60;99.90
7472;DHT22;3777;48.722;8.110;2023-05-07T02:40:44;13.60;99.90
7472;DHT22;3777;48.722;8.110;2023-05-07T02:43:11;13.60;99.90
7472;DHT22;3777;48.722;8.110;2023-05-07T02:45:38;13.60;99.90
7472;DHT22;3777;48.722;8.110;2023-05-07T02:48:05;13.60;99.90
7472;DHT22;3777;48.722;8.110;2023-05-07T02:50:34;13.60;99.90
7472;DHT22;3777;48.722;8.110;2023-05-07T02:53:00;13.60;99.90
7472;DHT22;3777;48.722;8.110;2023-05-07T02:55:27;13.60;99.90
7472;DHT22;3777;48.722;8.110;2023-05-07T02:57:55;13.60;99.90
7472;DHT22;3777;48.722;8.110;2023-05-07T03:00:22;13.50;99.90
7472;DHT22;3777;48.722;8.110;2023-05-07T03:02:49;13.50;99.90
7472;DHT22;3777;48.722;8.110;2023-05-07T03:05:16;13.50;99.90
7472;DHT22;3777;48.722;8.110;2023-05-07T03:07:44;13.50;99.90
7472;DHT22;3777;48.722;8.110;2023-05-07T03:10:13;13.40;99.90
7472;DHT22;3777;48.722;8.110;2023-05-07T03:12:40;13.40;99.90
7472;DHT22;3777;48.722;8.110;2023-05-07T03:15:08;13.40;99.90
7472;DHT22;3777;48.722;8.110;2023-05-07T03:17:36;13.30;99.90
7472;DHT22;3777;48.722;8.110;2023-05-07T03:20:03;13.30;99.90
7472;DHT22;3777;48.722;8.110;2023-05-07T03:22:30;13.30;99.90
7472;DHT22;3777;48.722;8.110;2023-05-07T03:24:58;13.20;99.90
7472;DHT22;3777;48.722;8.110;2023-05-07T03:27:25;13.20;99.90
7472;DHT22;3777;48.722;8.110;2023-05-07T03:29:52;13.20;99.90
7472;DHT22;3777;48.722;8.110;2023-05-07T03:32:19;13.20;99.90
7472;DHT22;3777;48.722;8.110;2023-05-07T03:34:46;13.20;99.90
7472;DHT22;3777;48.722;8.110;2023-05-07T03:37:13;13.10;99.90
7472;DHT22;3777;48.722;8.110;2023-05-07T03:39:40;13.10;99.90
7472;DHT22;3777;48.722;8.110;2023-05-07T03:42:08;13.10;99.90
7472;DHT22;3777;48.722;8.110;2023-05-07T03:44:35;13.10;99.90
7472;DHT22;3777;48.722;8.110;2023-05-07T03:47:02;13.00;99.90
7472;DHT22;3777;48.722;8.110;2023-05-07T03:49:29;13.00;99.90
7472;DHT22;3777;48.722;8.110;2023-05-07T03:51:56;13.00;99.90
7472;DHT22;3777;48.722;8.110;2023-05-07T03:54:23;13.00;99.90
7472;DHT22;3777;48.722;8.110;2023-05-07T03:56:50;13.00;99.90
7472;DHT22;3777;48.722;8.110;2023-05-07T03:59:18;13.00;99.90
7472;DHT22;3777;48.722;8.110;2023-05-07T04:01:45;13.00;99.90
7472;DHT22;3777;48.722;8.110;2023-05-07T04:04:12;13.00;99.90
7472;DHT22;3777;48.722;8.110;2023-05-07T04:06:39;13.00;99.90
7472;DHT22;3777;48.722;8.110;2023-05-07T04:09:06;12.90;99.90
7472;DHT22;3777;48.722;8.110;2023-05-07T04:11:34;12.90;99.90
7472;DHT22;3777;48.722;8.110;2023-05-07T04:14:01;12.90;99.90
7472;DHT22;3777;48.722;8.110;2023-05-07T04:16:29;12.90;99.90
7472;DHT22;3777;48.722;8.110;2023-05-07T04:18:56;12.90;99.90
7472;DHT22;3777;48.722;8.110;2023-05-07T04:21:23;12.90;99.90
7472;DHT22;3777;48.722;8.110;2023-05-07T04:23:52;12.90;99.90
7472;DHT22;3777;48.722;8.110;2023-05-07T04:26:19;13.00;99.90
7472;DHT22;3777;48.722;8.110;2023-05-07T04:28:46;13.00;99.90
7472;DHT22;3777;48.722;8.110;2023-05-07T04:31:13;13.00;99.90
7472;DHT22;3777;48.722;8.110;2023-05-07T04:33:42;13.10;99.90
7472;DHT22;3777;48.722;8.110;2023-05-07T04:36:09;13.10;99.90
7472;DHT22;3777;48.722;8.110;2023-05-07T04:38:36;13.20;99.90
7472;DHT22;3777;48.722;8.110;2023-05-07T04:41:05;13.20;99.90
7472;DHT22;3777;48.722;8.110;2023-05-07T04:43:32;13.30;99.90
7472;DHT22;3777;48.722;8.110;2023-05-07T04:45:59;13.30;99.90
7472;DHT22;3777;48.722;8.110;2023-05-07T04:48:26;13.40;99.90
7472;DHT22;3777;48.722;8.110;2023-05-07T04:50:55;13.50;99.90
7472;DHT22;3777;48.722;8.110;2023-05-07T04:53:23;13.50;99.90
7472;DHT22;3777;48.722;8.110;2023-05-07T04:55:55;13.50;99.90
7472;DHT22;3777;48.722;8.110;2023-05-07T04:58:22;13.60;99.90
7472;DHT22;3777;48.722;8.110;2023-05-07T05:00:49;13.70;99.90
7472;DHT22;3777;48.722;8.110;2023-05-07T05:03:16;13.70;99.90
7472;DHT22;3777;48.722;8.110;2023-05-07T05:05:43;13.80;99.90
7472;DHT22;3777;48.722;8.110;2023-05-07T05:08:12;13.80;99.90
7472;DHT22;3777;48.722;8.110;2023-05-07T05:10:39;13.80;99.90
7472;DHT22;3777;48.722;8.110;2023-05-07T05:13:07;13.90;99.90
7472;DHT22;3777;48.722;8.110;2023-05-07T05:15:34;13.90;99.90
7472;DHT22;3777;48.722;8.110;2023-05-07T05:18:01;14.00;99.90
7472;DHT22;3777;48.722;8.110;2023-05-07T05:20:28;14.10;99.90
7472;DHT22;3777;48.722;8.110;2023-05-07T05:22:55;14.10;99.90
7472;DHT22;3777;48.722;8.110;2023-05-07T05:25:24;14.20;99.90
7472;DHT22;3777;48.722;8.110;2023-05-07T05:27:51;14.30;99.90
7472;DHT22;3777;48.722;8.110;2023-05-07T05:30:17;14.10;99.90
7472;DHT22;3777;48.722;8.110;2023-05-07T05:32:44;14.00;99.90
7472;DHT22;3777;48.722;8.110;2023-05-07T05:35:11;14.10;99.90
7472;DHT22;3777;48.722;8.110;2023-05-07T05:37:39;14.20;99.90
7472;DHT22;3777;48.722;8.110;2023-05-07T05:40:07;14.30;99.90
7472;DHT22;3777;48.722;8.110;2023-05-07T05:42:35;14.40;99.90
7472;DHT22;3777;48.722;8.110;2023-05-07T05:45:02;14.50;99.90
7472;DHT22;3777;48.722;8.110;2023-05-07T05:47:29;14.70;99.90
7472;DHT22;3777;48.722;8.110;2023-05-07T05:49:56;15.00;99.90
7472;DHT22;3777;48.722;8.110;2023-05-07T05:52:23;15.60;99.90
7472;DHT22;3777;48.722;8.110;2023-05-07T05:54:50;16.30;99.90
7472;DHT22;3777;48.722;8.110;2023-05-07T05:57:17;17.20;99.90
7472;DHT22;3777;48.722;8.110;2023-05-07T05:59:46;18.10;99.90
7472;DHT22;3777;48.722;8.110;2023-05-07T06:02:13;19.20;99.90
7472;DHT22;3777;48.722;8.110;2023-05-07T06:04:40;20.30;99.90
7472;DHT22;3777;48.722;8.110;2023-05-07T06:07:08;21.40;99.90
7472;DHT22;3777;48.722;8.110;2023-05-07T06:09:35;22.60;99.90
7472;DHT22;3777;48.722;8.110;2023-05-07T06:12:02;23.90;99.90
7472;DHT22;3777;48.722;8.110;2023-05-07T06:14:29;25.10;99.90
7472;DHT22;3777;48.722;8.110;2023-05-07T06:16:57;25.90;99.90
7472;DHT22;3777;48.722;8.110;2023-05-07T06:19:24;26.70;99.90
7472;DHT22;3777;48.722;8.110;2023-05-07T06:21:52;27.80;99.90
7472;DHT22;3777;48.722;8.110;2023-05-07T06:24:19;28.10;99.90
7472;DHT22;3777;48.722;8.110;2023-05-07T06:26:46;28.60;99.90
7472;DHT22;3777;48.722;8.110;2023-05-07T06:29:13;28.80;99.90
7472;DHT22;3777;48.722;8.110;2023-05-07T06:31:40;29.80;99.90
7472;DHT22;3777;48.722;8.110;2023-05-07T06:34:08;30.80;99.30
7472;DHT22;3777;48.722;8.110;2023-05-07T06:36:35;30.80;96.30
7472;DHT22;3777;48.722;8.110;2023-05-07T06:39:02;29.90;95.50
7472;DHT22;3777;48.722;8.110;2023-05-07T06:41:29;28.40;96.30
7472;DHT22;3777;48.722;8.110;2023-05-07T06:43:56;27.20;98.00
7472;DHT22;3777;48.722;8.110;2023-05-07T06:46:23;26.00;99.90
7472;DHT22;3777;48.722;8.110;2023-05-07T06:48:50;25.00;99.90
7472;DHT22;3777;48.722;8.110;2023-05-07T06:51:19;24.20;99.90
7472;DHT22;3777;48.722;8.110;2023-05-07T06:53:46;23.60;99.90
7472;DHT22;3777;48.722;8.110;2023-05-07T06:56:13;22.80;99.90
7472;DHT22;3777;48.722;8.110;2023-05-07T06:58:40;22.50;99.90
7472;DHT22;3777;48.722;8.110;2023-05-07T07:01:06;22.40;99.90
7472;DHT22;3777;48.722;8.110;2023-05-07T07:03:33;22.40;99.90
7472;DHT22;3777;48.722;8.110;2023-05-07T07:06:00;22.30;99.90
7472;DHT22;3777;48.722;8.110;2023-05-07T07:08:30;22.20;99.90
7472;DHT22;3777;48.722;8.110;2023-05-07T07:10:57;22.00;99.90
7472;DHT22;3777;48.722;8.110;2023-05-07T07:13:24;21.80;99.90
7472;DHT22;3777;48.722;8.110;2023-05-07T07:15:51;21.60;99.90
7472;DHT22;3777;48.722;8.110;2023-05-07T07:18:18;21.50;99.90
7472;DHT22;3777;48.722;8.110;2023-05-07T07:20:45;21.50;99.90
7472;DHT22;3777;48.722;8.110;2023-05-07T07:23:12;21.60;99.90
7472;DHT22;3777;48.722;8.110;2023-05-07T07:25:41;21.90;99.90
7472;DHT22;3777;48.722;8.110;2023-05-07T07:28:08;22.30;99.90
7472;DHT22;3777;48.722;8.110;2023-05-07T07:30:36;22.60;99.90
7472;DHT22;3777;48.722;8.110;2023-05-07T07:33:03;22.90;99.90
7472;DHT22;3777;48.722;8.110;2023-05-07T07:35:30;22.90;99.90
7472;DHT22;3777;48.722;8.110;2023-05-07T07:37:58;22.90;99.90
7472;DHT22;3777;48.722;8.110;2023-05-07T07:40:25;23.20;99.90
7472;DHT22;3777;48.722;8.110;2023-05-07T07:42:54;23.30;99.90
7472;DHT22;3777;48.722;8.110;2023-05-07T07:45:21;22.60;99.90
7472;DHT22;3777;48.722;8.110;2023-05-07T07:47:48;22.80;99.90
7472;DHT22;3777;48.722;8.110;2023-05-07T07:50:15;23.00;99.90
7472;DHT22;3777;48.722;8.110;2023-05-07T07:52:42;22.90;99.90
7472;DHT22;3777;48.722;8.110;2023-05-07T07:55:09;23.20;99.90
7472;DHT22;3777;48.722;8.110;2023-05-07T07:57:36;23.90;99.90
7472;DHT22;3777;48.722;8.110;2023-05-07T08:00:05;23.90;99.90
7472;DHT22;3777;48.722;8.110;2023-05-07T08:02:33;23.90;99.90
7472;DHT22;3777;48.722;8.110;2023-05-07T08:05:00;24.00;99.90
7472;DHT22;3777;48.722;8.110;2023-05-07T08:07:27;24.70;99.90
7472;DHT22;3777;48.722;8.110;2023-05-07T08:09:54;25.40;99.90
7472;DHT22;3777;48.722;8.110;2023-05-07T08:12:21;26.00;99.90
7472;DHT22;3777;48.722;8.110;2023-05-07T08:14:48;26.40;99.90
7472;DHT22;3777;48.722;8.110;2023-05-07T08:17:16;26.40;99.90
7472;DHT22;3777;48.722;8.110;2023-05-07T08:19:43;27.00;99.90
7472;DHT22;3777;48.722;8.110;2023-05-07T08:22:10;26.00;99.90
7472;DHT22;3777;48.722;8.110;2023-05-07T08:24:37;25.80;99.90
7472;DHT22;3777;48.722;8.110;2023-05-07T08:27:04;25.10;99.90
7472;DHT22;3777;48.722;8.110;2023-05-07T08:29:31;25.10;99.90
7472;DHT22;3777;48.722;8.110;2023-05-07T08:31:58;24.80;99.90
7472;DHT22;3777;48.722;8.110;2023-05-07T08:34:26;25.30;99.90
7472;DHT22;3777;48.722;8.110;2023-05-07T08:36:53;25.80;99.90
7472;DHT22;3777;48.722;8.110;2023-05-07T08:39:20;25.80;99.90
7472;DHT22;3777;48.722;8.110;2023-05-07T08:41:48;25.70;99.90
7472;DHT22;3777;48.722;8.110;2023-05-07T08:44:21;25.70;99.90
7472;DHT22;3777;48.722;8.110;2023-05-07T08:46:50;25.90;99.90
7472;DHT22;3777;48.722;8.110;2023-05-07T08:49:20;25.90;99.90
7472;DHT22;3777;48.722;8.110;2023-05-07T08:51:48;26.50;99.90
7472;DHT22;3777;48.722;8.110;2023-05-07T08:54:16;27.80;99.90
7472;DHT22;3777;48.722;8.110;2023-05-07T08:56:43;29.30;99.90
7472;DHT22;3777;48.722;8.110;2023-05-07T08:59:10;30.30;99.90
7472;DHT22;3777;48.722;8.110;2023-05-07T09:01:37;31.80;99.90
7472;DHT22;3777;48.722;8.110;2023-05-07T09:04:04;32.70;97.40
7472;DHT22;3777;48.722;8.110;2023-05-07T09:06:32;33.40;95.30
7472;DHT22;3777;48.722;8.110;2023-05-07T09:09:01;33.90;92.70
7472;DHT22;3777;48.722;8.110;2023-05-07T09:11:28;34.70;93.50
7472;DHT22;3777;48.722;8.110;2023-05-07T09:13:56;35.20;86.10
7472;DHT22;3777;48.722;8.110;2023-05-07T09:16:25;35.70;80.80
7472;DHT22;3777;48.722;8.110;2023-05-07T09:18:53;36.20;72.80
7472;DHT22;3777;48.722;8.110;2023-05-07T09:21:21;36.60;68.50
7472;DHT22;3777;48.722;8.110;2023-05-07T09:23:52;36.80;70.80
7472;DHT22;3777;48.722;8.110;2023-05-07T09:26:23;37.00;65.80
7472;DHT22;3777;48.722;8.110;2023-05-07T09:28:50;37.20;60.70
7472;DHT22;3777;48.722;8.110;2023-05-07T09:31:17;37.30;58.50
7472;DHT22;3777;48.722;8.110;2023-05-07T09:33:44;37.40;57.50
7472;DHT22;3777;48.722;8.110;2023-05-07T09:36:11;37.40;57.40
7472;DHT22;3777;48.722;8.110;2023-05-07T09:38:39;37.50;57.60
7472;DHT22;3777;48.722;8.110;2023-05-07T09:41:06;37.90;56.20
7472;DHT22;3777;48.722;8.110;2023-05-07T09:43:37;37.70;52.30
7472;DHT22;3777;48.722;8.110;2023-05-07T09:46:07;37.80;55.70
7472;DHT22;3777;48.722;8.110;2023-05-07T09:48:39;38.20;51.80
7472;DHT22;3777;48.722;8.110;2023-05-07T09:51:16;38.60;51.10
7472;DHT22;3777;48.722;8.110;2023-05-07T09:53:45;38.90;50.30
7472;DHT22;3777;48.722;8.110;2023-05-07T09:56:14;39.20;50.80
7472;DHT22;3777;48.722;8.110;2023-05-07T09:58:43;38.60;48.90
7472;DHT22;3777;48.722;8.110;2023-05-07T10:01:12;38.90;49.20
7472;DHT22;3777;48.722;8.110;2023-05-07T10:03:40;39.00;49.20
7472;DHT22;3777;48.722;8.110;2023-05-07T10:06:09;38.90;49.50
7472;DHT22;3777;48.722;8.110;2023-05-07T10:08:36;38.70;46.60
7472;DHT22;3777;48.722;8.110;2023-05-07T10:11:04;38.70;49.70
7472;DHT22;3777;48.722;8.110;2023-05-07T10:13:33;39.20;48.20
7472;DHT22;3777;48.722;8.110;2023-05-07T10:16:03;38.80;48.10
7472;DHT22;3777;48.722;8.110;2023-05-07T10:18:30;38.50;50.20
7472;DHT22;3777;48.722;8.110;2023-05-07T10:21:02;38.30;48.90
7472;DHT22;3777;48.722;8.110;2023-05-07T10:23:31;38.10;47.60
7472;DHT22;3777;48.722;8.110;2023-05-07T10:25:58;37.70;49.40
7472;DHT22;3777;48.722;8.110;2023-05-07T10:28:27;37.00;50.30
7472;DHT22;3777;48.722;8.110;2023-05-07T10:31:05;36.50;52.10
7472;DHT22;3777;48.722;8.110;2023-05-07T10:33:34;35.80;51.90
7472;DHT22;3777;48.722;8.110;2023-05-07T10:36:04;35.30;54.10
7472;DHT22;3777;48.722;8.110;2023-05-07T10:38:33;34.80;55.40
7472;DHT22;3777;48.722;8.110;2023-05-07T10:41:01;34.20;54.20
7472;DHT22;3777;48.722;8.110;2023-05-07T10:43:39;33.90;58.90
7472;DHT22;3777;48.722;8.110;2023-05-07T10:46:14;33.30;58.70
7472;DHT22;3777;48.722;8.110;2023-05-07T10:49:06;32.50;58.60
7472;DHT22;3777;48.722;8.110;2023-05-07T10:51:34;32.10;59.10
7472;DHT22;3777;48.722;8.110;2023-05-07T10:54:20;31.90;59.60
7472;DHT22;3777;48.722;8.110;2023-05-07T10:56:47;31.60;58.80
7472;DHT22;3777;48.722;8.110;2023-05-07T10:59:35;31.40;59.20
7472;DHT22;3777;48.722;8.110;2023-05-07T11:02:09;31.20;63.40
7472;DHT22;3777;48.722;8.110;2023-05-07T11:04:37;31.00;66.80
7472;DHT22;3777;48.722;8.110;2023-05-07T11:07:25;30.30;66.80
7472;DHT22;3777;48.722;8.110;2023-05-07T11:09:59;30.20;63.70
7472;DHT22;3777;48.722;8.110;2023-05-07T11:12:54;30.00;62.00
7472;DHT22;3777;48.722;8.110;2023-05-07T11:15:48;28.30;65.50
7472;DHT22;3777;48.722;8.110;2023-05-07T11:18:17;28.00;68.90
7472;DHT22;3777;48.722;8.110;2023-05-07T11:23:55;28.20;76.10
7472;DHT22;3777;48.722;8.110;2023-05-07T11:26:26;28.70;81.90
7472;DHT22;3777;48.722;8.110;2023-05-07T11:28:53;27.70;76.80
7472;DHT22;3777;48.722;8.110;2023-05-07T11:31:22;28.10;76.80
7472;DHT22;3777;48.722;8.110;2023-05-07T11:33:52;28.60;78.60
7472;DHT22;3777;48.722;8.110;2023-05-07T11:36:19;28.60;78.50
7472;DHT22;3777;48.722;8.110;2023-05-07T11:38:47;28.90;80.50
7472;DHT22;3777;48.722;8.110;2023-05-07T11:41:16;28.50;76.20
7472;DHT22;3777;48.722;8.110;2023-05-07T11:43:55;28.80;79.30
7472;DHT22;3777;48.722;8.110;2023-05-07T11:46:22;29.00;79.80
7472;DHT22;3777;48.722;8.110;2023-05-07T11:48:50;29.20;79.80
7472;DHT22;3777;48.722;8.110;2023-05-07T11:51:22;29.50;82.20
7472;DHT22;3777;48.722;8.110;2023-05-07T11:53:49;29.40;80.00
7472;DHT22;3777;48.722;8.110;2023-05-07T11:56:17;29.40;82.40
7472;DHT22;3777;48.722;8.110;2023-05-07T11:58:46;29.50;80.50
7472;DHT22;3777;48.722;8.110;2023-05-07T12:01:14;29.60;84.70
7472;DHT22;3777;48.722;8.110;2023-05-07T12:03:43;29.70;79.60
7472;DHT22;3777;48.722;8.110;2023-05-07T12:06:13;29.40;78.90
7472;DHT22;3777;48.722;8.110;2023-05-07T12:08:42;28.90;79.80
7472;DHT22;3777;48.722;8.110;2023-05-07T12:11:11;28.90;86.80
7472;DHT22;3777;48.722;8.110;2023-05-07T12:13:39;29.10;88.00
7472;DHT22;3777;48.722;8.110;2023-05-07T12:16:06;29.40;89.30
7472;DHT22;3777;48.722;8.110;2023-05-07T12:18:35;29.40;88.40
7472;DHT22;3777;48.722;8.110;2023-05-07T12:21:04;29.50;87.70
7472;DHT22;3777;48.722;8.110;2023-05-07T12:23:33;29.40;84.80
7472;DHT22;3777;48.722;8.110;2023-05-07T12:26:00;29.40;86.40
7472;DHT22;3777;48.722;8.110;2023-05-07T12:28:28;29.20;81.50
7472;DHT22;3777;48.722;8.110;2023-05-07T12:30:57;29.00;78.10
7472;DHT22;3777;48.722;8.110;2023-05-07T12:33:25;28.90;78.50
7472;DHT22;3777;48.722;8.110;2023-05-07T12:35:55;28.60;79.30
7472;DHT22;3777;48.722;8.110;2023-05-07T12:38:22;28.50;79.70
7472;DHT22;3777;48.722;8.110;2023-05-07T12:40:53;28.50;79.10
7472;DHT22;3777;48.722;8.110;2023-05-07T12:43:21;28.40;88.20
7472;DHT22;3777;48.722;8.110;2023-05-07T12:45:49;28.30;89.50
7472;DHT22;3777;48.722;8.110;2023-05-07T12:48:17;28.10;86.60
7472;DHT22;3777;48.722;8.110;2023-05-07T12:50:48;28.00;87.10
7472;DHT22;3777;48.722;8.110;2023-05-07T12:53:15;27.90;88.50
7472;DHT22;3777;48.722;8.110;2023-05-07T12:55:43;28.00;91.50
7472;DHT22;3777;48.722;8.110;2023-05-07T12:58:16;28.00;92.30
7472;DHT22;3777;48.722;8.110;2023-05-07T13:00:43;27.70;89.10
7472;DHT22;3777;48.722;8.110;2023-05-07T13:03:10;27.80;90.00
7472;DHT22;3777;48.722;8.110;2023-05-07T13:05:38;27.80;85.90
7472;DHT22;3777;48.722;8.110;2023-05-07T13:08:05;27.70;87.10
7472;DHT22;3777;48.722;8.110;2023-05-07T13:10:35;27.60;87.80
7472;DHT22;3777;48.722;8.110;2023-05-07T13:13:02;27.80;90.20
7472;DHT22;3777;48.722;8.110;2023-05-07T13:15:31;27.90;87.50
7472;DHT22;3777;48.722;8.110;2023-05-07T13:17:58;27.80;83.70
7472;DHT22;3777;48.722;8.110;2023-05-07T13:20:25;27.80;86.40
7472;DHT22;3777;48.722;8.110;2023-05-07T13:22:52;27.90;87.70
7472;DHT22;3777;48.722;8.110;2023-05-07T13:25:18;28.00;86.20
7472;DHT22;3777;48.722;8.110;2023-05-07T13:27:45;28.10;89.90
7472;DHT22;3777;48.722;8.110;2023-05-07T13:30:12;28.10;85.20
7472;DHT22;3777;48.722;8.110;2023-05-07T13:32:41;28.00;82.90
7472;DHT22;3777;48.722;8.110;2023-05-07T13:35:08;27.90;84.20
7472;DHT22;3777;48.722;8.110;2023-05-07T13:37:35;27.90;85.70
7472;DHT22;3777;48.722;8.110;2023-05-07T13:40:02;27.80;84.40
7472;DHT22;3777;48.722;8.110;2023-05-07T13:42:30;27.80;85.80
7472;DHT22;3777;48.722;8.110;2023-05-07T13:44:57;27.10;83.50
7472;DHT22;3777;48.722;8.110;2023-05-07T13:47:24;27.10;86.00
7472;DHT22;3777;48.722;8.110;2023-05-07T13:49:52;26.70;87.50
7472;DHT22;3777;48.722;8.110;2023-05-07T13:52:19;26.80;87.50
7472;DHT22;3777;48.722;8.110;2023-05-07T13:54:46;26.80;89.30
7472;DHT22;3777;48.722;8.110;2023-05-07T13:57:13;26.60;87.60
7472;DHT22;3777;48.722;8.110;2023-05-07T13:59:41;26.60;90.70
7472;DHT22;3777;48.722;8.110;2023-05-07T14:02:07;26.60;90.70
7472;DHT22;3777;48.722;8.110;2023-05-07T14:04:35;26.60;91.30
7472;DHT22;3777;48.722;8.110;2023-05-07T14:07:04;26.50;91.20
7472;DHT22;3777;48.722;8.110;2023-05-07T14:09:31;26.70;93.10
7472;DHT22;3777;48.722;8.110;2023-05-07T14:11:58;26.90;94.20
7472;DHT22;3777;48.722;8.110;2023-05-07T14:14:25;27.10;92.00
7472;DHT22;3777;48.722;8.110;2023-05-07T14:16:52;27.10;90.40
7472;DHT22;3777;48.722;8.110;2023-05-07T14:19:19;27.20;91.90
7472;DHT22;3777;48.722;8.110;2023-05-07T14:21:48;27.10;91.00
7472;DHT22;3777;48.722;8.110;2023-05-07T14:24:16;27.00;90.60
7472;DHT22;3777;48.722;8.110;2023-05-07T14:26:43;27.10;92.20
7472;DHT22;3777;48.722;8.110;2023-05-07T14:29:10;27.10;94.20
7472;DHT22;3777;48.722;8.110;2023-05-07T14:31:37;27.10;93.40
7472;DHT22;3777;48.722;8.110;2023-05-07T14:34:05;27.00;92.10
7472;DHT22;3777;48.722;8.110;2023-05-07T14:36:32;26.80;93.70
7472;DHT22;3777;48.722;8.110;2023-05-07T14:38:59;26.60;93.60
7472;DHT22;3777;48.722;8.110;2023-05-07T14:41:27;26.40;92.30
7472;DHT22;3777;48.722;8.110;2023-05-07T14:43:54;25.90;92.60
7472;DHT22;3777;48.722;8.110;2023-05-07T14:46:21;25.40;92.20
7472;DHT22;3777;48.722;8.110;2023-05-07T14:48:50;24.90;92.30
7472;DHT22;3777;48.722;8.110;2023-05-07T14:51:17;24.70;93.70
7472;DHT22;3777;48.722;8.110;2023-05-07T14:53:44;24.40;93.70
7472;DHT22;3777;48.722;8.110;2023-05-07T14:56:11;24.10;94.50
7472;DHT22;3777;48.722;8.110;2023-05-07T14:58:39;24.00;97.40
7472;DHT22;3777;48.722;8.110;2023-05-07T15:01:06;24.00;98.40
7472;DHT22;3777;48.722;8.110;2023-05-07T15:03:40;23.80;99.90
7472;DHT22;3777;48.722;8.110;2023-05-07T15:06:07;23.80;99.90
7472;DHT22;3777;48.722;8.110;2023-05-07T15:08:34;23.60;99.90
7472;DHT22;3777;48.722;8.110;2023-05-07T15:11:01;23.50;99.90
7472;DHT22;3777;48.722;8.110;2023-05-07T15:13:28;23.30;99.90
7472;DHT22;3777;48.722;8.110;2023-05-07T15:15:56;23.20;99.90
7472;DHT22;3777;48.722;8.110;2023-05-07T15:18:23;23.00;99.90
7472;DHT22;3777;48.722;8.110;2023-05-07T15:20:50;22.80;99.90
7472;DHT22;3777;48.722;8.110;2023-05-07T15:23:17;22.60;99.90
7472;DHT22;3777;48.722;8.110;2023-05-07T15:25:44;22.60;99.90
7472;DHT22;3777;48.722;8.110;2023-05-07T15:28:11;22.40;99.90
7472;DHT22;3777;48.722;8.110;2023-05-07T15:30:38;22.40;99.90
7472;DHT22;3777;48.722;8.110;2023-05-07T15:33:06;22.40;99.90
7472;DHT22;3777;48.722;8.110;2023-05-07T15:35:33;22.40;99.90
7472;DHT22;3777;48.722;8.110;2023-05-07T15:38:00;22.30;99.90
7472;DHT22;3777;48.722;8.110;2023-05-07T15:40:29;22.20;99.90
7472;DHT22;3777;48.722;8.110;2023-05-07T15:42:56;22.10;99.90
7472;DHT22;3777;48.722;8.110;2023-05-07T15:45:24;22.10;99.90
7472;DHT22;3777;48.722;8.110;2023-05-07T15:47:51;22.10;99.90
7472;DHT22;3777;48.722;8.110;2023-05-07T15:50:19;22.10;99.90
7472;DHT22;3777;48.722;8.110;2023-05-07T15:52:46;22.10;99.90
7472;DHT22;3777;48.722;8.110;2023-05-07T15:55:13;22.10;99.90
7472;DHT22;3777;48.722;8.110;2023-05-07T15:57:40;22.00;99.90
7472;DHT22;3777;48.722;8.110;2023-05-07T16:00:08;22.00;99.90
7472;DHT22;3777;48.722;8.110;2023-05-07T16:02:37;22.00;99.90
7472;DHT22;3777;48.722;8.110;2023-05-07T16:05:05;21.80;99.90
7472;DHT22;3777;48.722;8.110;2023-05-07T16:07:36;21.60;99.90
7472;DHT22;3777;48.722;8.110;2023-05-07T16:10:04;21.40;99.90